Time;durP1;ratioP1;P1;durP2;ratioP2;P2;SDS_P1;SDS_P2;PMS_P1;PMS_P2;Temp;Humidity;BMP_temperature;BMP_pressure;BME280_temperature;BME280_humidity;BME280_pressure;Samples;Min_cycle;Max_cycle;Signal;HPM_P1;HPM_P2
2022/09/07 00:01:06;;;;;;;5.68;1.85;;;21.60;99.90;;;;;;5076888;28;20072;-68
2022/09/07 00:03:31;;;;;;;7.35;2.35;;;21.50;99.90;;;;;;5076706;28;20032;-68
2022/09/07 00:05:57;;;;;;;6.18;2.45;;;21.70;99.90;;;;;;5077304;28;20031;-68
2022/09/07 00:08:25;;;;;;;4.88;2.00;;;21.70;99.90;;;;;;5076583;28;20397;-69
2022/09/07 00:11:04;;;;;;;4.88;2.22;;;21.50;99.90;;;;;;5076195;28;20017;-68
2022/09/07 00:13:32;;;;;;;5.32;1.90;;;21.20;99.90;;;;;;5076137;28;20021;-68
2022/09/07 00:16:02;;;;;;;6.45;2.20;;;21.10;99.90;;;;;;5058417;28;20031;-69
2022/09/07 00:18:27;;;;;;;5.70;2.22;;;21.10;99.90;;;;;;5058199;28;20058;-68
2022/09/07 00:20:58;;;;;;;5.53;2.17;;;21.40;99.90;;;;;;5058195;28;20076;-68
2022/09/07 00:23:24;;;;;;;8.25;2.58;;;21.60;99.90;;;;;;5075932;28;20056;-68
2022/09/07 00:25:49;;;;;;;6.20;1.85;;;21.70;99.90;;;;;;5076223;28;20028;-68
2022/09/07 00:28:15;;;;;;;12.70;2.65;;;21.50;99.90;;;;;;5075849;28;20075;-68
2022/09/07 00:30:41;;;;;;;6.93;2.65;;;21.40;99.90;;;;;;5057968;28;20028;-68
2022/09/07 00:33:08;;;;;;;5.95;2.10;;;21.60;99.90;;;;;;5076694;28;20029;-67
2022/09/07 00:35:39;;;;;;;8.05;2.42;;;21.80;99.90;;;;;;5056634;28;20024;-68
2022/09/07 00:38:04;;;;;;;6.00;2.63;;;21.90;99.90;;;;;;5075978;28;20087;-67
2022/09/07 00:40:30;;;;;;;5.97;2.45;;;21.80;99.90;;;;;;5075501;28;20515;-67
2022/09/07 00:42:55;;;;;;;7.72;2.13;;;21.90;99.90;;;;;;5057517;28;20031;-67
2022/09/07 00:45:21;;;;;;;5.28;2.08;;;21.90;99.90;;;;;;5075461;28;20488;-68
2022/09/07 00:47:58;;;;;;;7.15;1.95;;;21.50;99.90;;;;;;5057337;28;20024;-67
2022/09/07 00:50:42;;;;;;;;;;;21.30;99.90;;;;;;5076002;28;20063;-68
2022/09/07 00:53:18;;;;;;;6.38;2.30;;;21.20;99.90;;;;;;5075689;28;20371;-68
2022/09/07 00:55:47;;;;;;;5.50;2.70;;;21.00;99.90;;;;;;5075557;28;20025;-68
2022/09/07 00:58:13;;;;;;;5.45;2.05;;;20.90;99.90;;;;;;5075098;28;20267;-67
2022/09/07 01:00:40;;;;;;;8.07;2.15;;;20.90;99.90;;;;;;5057484;28;20047;-68
2022/09/07 01:03:07;;;;;;;3.60;1.90;;;21.00;99.90;;;;;;5076076;28;20029;-67
2022/09/07 01:05:47;;;;;;;7.82;2.30;;;21.10;99.90;;;;;;5076522;28;20024;-67
2022/09/07 01:08:13;;;;;;;5.60;2.40;;;21.10;99.90;;;;;;5075871;28;20028;-67
2022/09/07 01:10:39;;;;;;;;;;;21.40;99.90;;;;;;5076712;28;20027;-68
2022/09/07 01:13:04;;;;;;;5.65;2.15;;;21.20;99.90;;;;;;5057094;28;20303;-68
2022/09/07 01:15:38;;;;;;;12.73;2.53;;;21.20;99.90;;;;;;5075051;28;20074;-68
2022/09/07 01:18:20;;;;;;;5.53;1.90;;;21.20;99.90;;;;;;5075481;28;20477;-68
2022/09/07 01:21:10;;;;;;;7.38;2.65;;;21.20;99.90;;;;;;5074986;28;20492;-68
2022/09/07 01:23:42;;;;;;;4.53;1.77;;;21.00;99.90;;;;;;5074982;28;20028;-67
2022/09/07 01:26:38;;;;;;;6.18;2.28;;;21.00;99.90;;;;;;5075379;28;20028;-68
2022/09/07 01:29:28;;;;;;;6.70;2.10;;;21.10;99.90;;;;;;5057846;28;20028;-67
2022/09/07 01:32:14;;;;;;;5.07;2.42;;;21.10;99.90;;;;;;5074610;28;20025;-67
2022/09/07 01:34:45;;;;;;;5.33;1.80;;;21.10;99.90;;;;;;5056638;28;20456;-68
2022/09/07 01:37:43;;;;;;;7.60;1.67;;;21.10;99.90;;;;;;5056326;28;20262;-68
2022/09/07 01:40:35;;;;;;;6.00;1.73;;;21.00;99.90;;;;;;5074332;28;20038;-67
2022/09/07 01:43:06;;;;;;;3.28;1.60;;;21.00;99.90;;;;;;5056313;28;20058;-67
2022/09/07 01:45:34;;;;;;;5.00;1.50;;;21.10;99.90;;;;;;5056092;28;20027;-69
2022/09/07 01:48:05;;;;;;;4.30;1.48;;;21.10;99.90;;;;;;5057011;28;20359;-68
2022/09/07 01:50:33;;;;;;;4.35;1.60;;;21.10;99.90;;;;;;5056252;28;20017;-67
2022/09/07 01:53:20;;;;;;;4.20;1.40;;;21.30;99.90;;;;;;5056261;28;20059;-68
2022/09/07 01:55:55;;;;;;;4.95;1.50;;;21.40;99.90;;;;;;5074096;28;20021;-68
2022/09/07 01:58:33;;;;;;;4.72;1.35;;;21.40;99.90;;;;;;5074101;28;20029;-67
2022/09/07 02:01:08;;;;;;;4.47;1.50;;;21.50;99.90;;;;;;5056040;28;20020;-68
2022/09/07 02:03:43;;;;;;;6.65;1.70;;;21.60;99.90;;;;;;5074302;28;20024;-68
2022/09/07 02:06:36;;;;;;;6.35;1.48;;;21.60;99.90;;;;;;5073930;28;20214;-68
2022/09/07 02:09:05;;;;;;;5.38;1.73;;;21.70;99.90;;;;;;5073511;28;20032;-67
2022/09/07 02:11:45;;;;;;;5.55;2.03;;;21.80;99.90;;;;;;5073634;28;20129;-68
2022/09/07 02:14:17;;;;;;;4.25;1.80;;;21.60;99.90;;;;;;5056645;28;20369;-67
2022/09/07 02:17:07;;;;;;;6.07;1.92;;;21.50;99.90;;;;;;5055607;28;20392;-68
2022/09/07 02:19:39;;;;;;;6.65;2.30;;;21.30;99.90;;;;;;5055655;28;20025;-68
2022/09/07 02:22:15;;;;;;;7.13;2.42;;;21.20;99.90;;;;;;5055636;28;20032;-68
2022/09/07 02:24:44;;;;;;;5.43;2.22;;;20.90;99.90;;;;;;5073535;28;20021;-69
2022/09/07 02:27:15;;;;;;;6.45;2.33;;;20.90;99.90;;;;;;5055622;28;20020;-68
2022/09/07 02:29:42;;;;;;;9.63;2.67;;;21.00;99.90;;;;;;5055399;28;20025;-68
2022/09/07 02:32:08;;;;;;;10.05;2.75;;;21.00;99.90;;;;;;5073595;28;20119;-67
2022/09/07 02:34:34;;;;;;;6.40;2.53;;;21.00;99.90;;;;;;5055660;28;20046;-69
2022/09/07 02:37:02;;;;;;;4.03;2.58;;;21.00;99.90;;;;;;5073667;28;20032;-68
2022/09/07 02:39:28;;;;;;;5.63;2.33;;;21.00;99.90;;;;;;5055654;28;20429;-68
2022/09/07 02:41:53;;;;;;;5.97;2.30;;;20.70;99.90;;;;;;5074103;28;20031;-68
2022/09/07 02:44:30;;;;;;;9.38;2.65;;;20.70;99.90;;;;;;5073420;28;20462;-67
2022/09/07 02:47:11;;;;;;;6.20;2.22;;;20.70;99.90;;;;;;5073180;28;20066;-68
2022/09/07 02:50:11;;;;;;;4.43;2.53;;;20.70;99.90;;;;;;5055157;28;20492;-68
2022/09/07 02:52:49;;;;;;;4.80;2.40;;;20.70;99.90;;;;;;5073335;28;20031;-68
2022/09/07 02:55:33;;;;;;;5.45;2.80;;;20.70;99.90;;;;;;5055334;28;20515;-66
2022/09/07 02:58:33;;;;;;;10.25;2.40;;;20.60;99.90;;;;;;5055968;28;20029;-68
2022/09/07 03:01:22;;;;;;;9.05;2.53;;;20.60;99.90;;;;;;5077673;28;20035;-68
2022/09/07 03:04:12;;;;;;;10.20;2.72;;;20.80;99.90;;;;;;5077919;28;20025;-68
2022/09/07 03:06:43;;;;;;;6.00;2.70;;;20.60;99.90;;;;;;5077999;28;20025;-68
2022/09/07 03:09:15;;;;;;;6.03;2.95;;;20.40;99.90;;;;;;5059857;28;20074;-68
2022/09/07 03:11:40;;;;;;;6.95;2.72;;;20.20;99.90;;;;;;5077074;28;20025;-67
2022/09/07 03:14:19;;;;;;;7.40;2.50;;;20.20;99.90;;;;;;5059084;28;20123;-67
2022/09/07 03:16:47;;;;;;;7.68;2.90;;;20.10;99.90;;;;;;5059101;28;20024;-67
2022/09/07 03:19:13;;;;;;;7.15;2.60;;;20.20;99.90;;;;;;5076868;28;20020;-67
2022/09/07 03:21:39;;;;;;;7.10;2.38;;;20.10;99.90;;;;;;5077105;28;20381;-67
2022/09/07 03:24:05;;;;;;;6.07;2.65;;;20.00;99.90;;;;;;5076936;28;20079;-67
2022/09/07 03:26:30;;;;;;;4.47;2.53;;;19.90;99.90;;;;;;5076671;28;20174;-67
2022/09/07 03:28:56;;;;;;;6.38;2.70;;;19.90;99.90;;;;;;5058789;28;20540;-68
2022/09/07 03:31:22;;;;;;;6.75;2.40;;;19.80;99.90;;;;;;5076818;28;20017;-67
2022/09/07 03:33:47;;;;;;;4.90;2.50;;;19.80;99.90;;;;;;5058708;28;20024;-67
2022/09/07 03:36:13;;;;;;;6.25;2.30;;;20.00;99.90;;;;;;5058793;28;20047;-67
2022/09/07 03:38:38;;;;;;;7.03;2.15;;;20.20;99.90;;;;;;5076253;28;20036;-68
2022/09/07 03:41:06;;;;;;;4.97;2.05;;;20.30;99.90;;;;;;5058662;28;20024;-67
2022/09/07 03:43:33;;;;;;;5.60;2.47;;;20.30;99.90;;;;;;5058445;28;20120;-67
2022/09/07 03:46:00;;;;;;;10.57;2.35;;;20.10;99.90;;;;;;5076330;28;20038;-68
2022/09/07 03:48:33;;;;;;;10.27;2.50;;;20.00;99.90;;;;;;5076433;28;20074;-68
2022/09/07 03:51:05;;;;;;;6.68;2.17;;;20.00;99.90;;;;;;5076293;28;20096;-68
2022/09/07 03:53:36;;;;;;;5.03;2.50;;;20.10;99.90;;;;;;5076136;28;20382;-68
2022/09/07 03:56:05;;;;;;;9.15;2.33;;;20.00;99.90;;;;;;5058339;28;20046;-67
2022/09/07 03:58:32;;;;;;;4.80;2.20;;;20.10;99.90;;;;;;5058136;28;20028;-68
2022/09/07 04:00:59;;;;;;;7.07;2.22;;;20.00;99.90;;;;;;5058514;28;20029;-67
2022/09/07 04:03:25;;;;;;;7.18;2.60;;;19.90;99.90;;;;;;5058387;28;20028;-68
2022/09/07 04:05:50;;;;;;;6.20;2.30;;;19.90;99.90;;;;;;5076472;28;20031;-67
2022/09/07 04:08:16;;;;;;;5.15;2.60;;;20.10;99.90;;;;;;5058307;28;20029;-68
2022/09/07 04:10:42;;;;;;;5.13;2.38;;;20.00;99.90;;;;;;5058213;28;20029;-68
2022/09/07 04:13:08;;;;;;;5.63;2.05;;;20.20;99.90;;;;;;5058356;28;20149;-67
2022/09/07 04:15:34;;;;;;;8.00;2.33;;;20.20;99.90;;;;;;5058608;28;20047;-67
2022/09/07 04:18:00;;;;;;;5.72;2.38;;;20.10;99.90;;;;;;5076913;28;20028;-67
2022/09/07 04:20:25;;;;;;;;;;;20.00;99.90;;;;;;5076954;28;20068;-67
2022/09/07 04:22:51;;;;;;;5.13;2.40;;;20.00;99.90;;;;;;5076351;28;19942;-67
2022/09/07 04:25:17;;;;;;;5.15;2.05;;;20.00;99.90;;;;;;5076502;28;20040;-67
2022/09/07 04:27:43;;;;;;;7.68;2.55;;;20.00;99.90;;;;;;5077016;28;20039;-67
2022/09/07 04:30:09;;;;;;;5.38;2.40;;;19.90;99.90;;;;;;5058453;28;20067;-67
2022/09/07 04:32:35;;;;;;;5.13;2.65;;;20.00;99.90;;;;;;5058516;28;20024;-67
2022/09/07 04:35:01;;;;;;;9.32;2.85;;;20.00;99.90;;;;;;5077108;28;20025;-68
2022/09/07 04:37:27;;;;;;;6.18;2.90;;;19.90;99.90;;;;;;5076109;28;20060;-68
2022/09/07 04:39:53;;;;;;;4.55;2.45;;;19.70;99.90;;;;;;5067316;23;20037;-69
2022/09/07 04:42:19;;;;;;;6.20;2.55;;;19.60;99.90;;;;;;5055497;28;20021;-69
2022/09/07 04:44:47;;;;;;;;;;;19.60;99.90;;;;;;5037566;28;20125;-69
2022/09/07 04:47:13;;;;;;;7.38;2.60;;;19.50;99.90;;;;;;5037484;28;19930;-69
2022/09/07 04:49:38;;;;;;;6.78;2.63;;;19.50;99.90;;;;;;5065572;28;20032;-69
2022/09/07 04:52:04;;;;;;;8.32;2.55;;;19.50;99.90;;;;;;5075671;28;20028;-69
2022/09/07 04:54:29;;;;;;;5.55;2.90;;;19.50;99.90;;;;;;5057135;28;20499;-69
2022/09/07 04:56:55;;;;;;;7.68;3.38;;;19.50;99.90;;;;;;5075242;28;20039;-69
2022/09/07 04:59:20;;;;;;;8.38;3.28;;;19.40;99.90;;;;;;5057056;28;20017;-69
2022/09/07 05:01:46;;;;;;;9.50;3.45;;;19.40;99.90;;;;;;5056764;28;20037;-69
2022/09/07 05:04:12;;;;;;;9.68;3.50;;;19.40;99.90;;;;;;5075075;28;20377;-69
2022/09/07 05:06:37;;;;;;;10.82;3.58;;;19.40;99.90;;;;;;5074740;28;20037;-69
2022/09/07 05:09:03;;;;;;;9.70;3.70;;;19.50;99.90;;;;;;5074814;28;20025;-69
2022/09/07 05:11:29;;;;;;;10.70;3.67;;;19.40;99.90;;;;;;5075513;28;20105;-69
2022/09/07 05:13:55;;;;;;;9.77;3.25;;;19.50;99.90;;;;;;5056707;28;20036;-69
2022/09/07 05:16:23;;;;;;;7.18;2.72;;;19.70;99.90;;;;;;5074739;28;20157;-69
2022/09/07 05:18:54;;;;;;;5.97;2.97;;;19.80;99.90;;;;;;5074836;28;20052;-69
2022/09/07 05:21:26;;;;;;;6.00;2.63;;;19.80;99.90;;;;;;5075306;28;20021;-69
2022/09/07 05:23:54;;;;;;;8.13;2.75;;;19.90;99.90;;;;;;5075375;28;20029;-69
2022/09/07 05:26:21;;;;;;;8.55;2.90;;;19.90;99.90;;;;;;5075206;28;20039;-69
2022/09/07 05:28:47;;;;;;;10.90;3.25;;;20.00;99.90;;;;;;5074805;28;20024;-69
2022/09/07 05:31:15;;;;;;;7.32;2.97;;;20.00;99.90;;;;;;5075304;28;20083;-69
2022/09/07 05:33:52;;;;;;;7.75;3.20;;;20.00;99.90;;;;;;5074845;28;20025;-69
2022/09/07 05:36:19;;;;;;;7.68;3.45;;;19.90;99.90;;;;;;5055476;28;20017;-69
2022/09/07 05:38:45;;;;;;;9.98;2.85;;;19.90;99.90;;;;;;5056077;28;20028;-69
2022/09/07 05:41:20;;;;;;;8.85;2.95;;;19.80;99.90;;;;;;5056098;28;20119;-70
2022/09/07 05:43:46;;;;;;;6.32;3.17;;;19.80;99.90;;;;;;5056690;28;20497;-70
2022/09/07 05:46:12;;;;;;;11.27;3.45;;;20.00;99.90;;;;;;5074667;28;20531;-69
2022/09/07 05:48:39;;;;;;;9.82;3.08;;;20.00;99.90;;;;;;5056447;28;20059;-69
2022/09/07 05:51:05;;;;;;;;;;;20.00;99.90;;;;;;5056629;28;20381;-69
2022/09/07 05:53:34;;;;;;;7.68;3.45;;;19.90;99.90;;;;;;5075657;28;19904;-69
2022/09/07 05:56:00;;;;;;;9.70;3.15;;;19.70;99.90;;;;;;5058915;28;20063;-69
2022/09/07 05:58:26;;;;;;;;;;;19.70;99.90;;;;;;5074195;28;20032;-69
2022/09/07 06:00:52;;;;;;;12.77;3.60;;;19.60;99.90;;;;;;5057408;28;19908;-69
2022/09/07 06:03:18;;;;;;;16.23;5.63;;;19.70;99.90;;;;;;5073546;28;20043;-68
2022/09/07 06:05:43;;;;;;;13.07;5.07;;;19.80;99.90;;;;;;5073526;28;20174;-69
2022/09/07 06:08:09;;;;;;;8.77;4.13;;;19.90;99.90;;;;;;5073495;28;20043;-70
2022/09/07 06:10:36;;;;;;;10.30;3.95;;;19.90;99.90;;;;;;5055474;28;20024;-70
2022/09/07 06:13:03;;;;;;;8.60;3.65;;;19.80;99.90;;;;;;5074642;28;20090;-69
2022/09/07 06:15:30;;;;;;;5.80;3.13;;;19.90;99.90;;;;;;5073812;28;20031;-69
2022/09/07 06:17:56;;;;;;;11.25;3.22;;;20.10;99.90;;;;;;5073468;28;20039;-70
2022/09/07 06:20:21;;;;;;;6.10;2.88;;;20.10;99.90;;;;;;5073217;28;20424;-70
2022/09/07 06:22:47;;;;;;;9.85;3.05;;;20.20;99.90;;;;;;5073433;28;20025;-68
2022/09/07 06:25:13;;;;;;;9.25;3.28;;;20.20;99.90;;;;;;5073674;28;20020;-68
2022/09/07 06:27:38;;;;;;;9.57;3.65;;;20.20;99.90;;;;;;5055741;28;20063;-69
2022/09/07 06:30:05;;;;;;;12.98;3.28;;;20.20;99.90;;;;;;5073990;28;20477;-68
2022/09/07 06:32:35;;;;;;;14.05;2.95;;;20.30;99.90;;;;;;5074309;28;20077;-70
2022/09/07 06:35:00;;;;;;;10.85;3.90;;;20.40;99.90;;;;;;5073425;28;20514;-71
2022/09/07 06:37:26;;;;;;;11.02;3.72;;;20.40;99.90;;;;;;5055542;28;20029;-70
2022/09/07 06:39:52;;;;;;;9.95;3.95;;;20.50;99.90;;;;;;5055042;28;20396;-70
2022/09/07 06:42:17;;;;;;;10.73;3.45;;;20.40;99.90;;;;;;5073055;28;20028;-70
2022/09/07 06:44:43;;;;;;;11.30;3.28;;;20.50;99.90;;;;;;5072870;28;20028;-69
2022/09/07 06:47:09;;;;;;;9.40;2.65;;;20.60;99.90;;;;;;5072915;28;20021;-68
2022/09/07 06:49:35;;;;;;;12.05;3.63;;;20.50;99.90;;;;;;5055209;28;20035;-69
2022/09/07 06:52:00;;;;;;;7.47;3.10;;;20.60;99.90;;;;;;5075482;28;20017;-69
2022/09/07 06:54:26;;;;;;;15.13;4.30;;;20.60;99.90;;;;;;5057703;28;20392;-69
2022/09/07 06:56:52;;;;;;;8.50;2.97;;;20.90;99.90;;;;;;5073983;28;20044;-70
2022/09/07 06:59:17;;;;;;;6.13;2.90;;;20.90;99.90;;;;;;5055164;28;20029;-69
2022/09/07 07:01:43;;;;;;;6.22;2.50;;;21.00;99.90;;;;;;5073497;28;20028;-68
2022/09/07 07:04:09;;;;;;;6.22;2.75;;;21.10;99.90;;;;;;5077275;28;20036;-69
2022/09/07 07:06:38;;;;;;;9.45;3.55;;;21.20;99.90;;;;;;5080143;28;20025;-69
2022/09/07 07:09:06;;;;;;;8.68;2.70;;;21.30;99.90;;;;;;5073896;28;20040;-70
2022/09/07 07:11:32;;;;;;;7.03;2.40;;;21.40;99.90;;;;;;5073475;28;20099;-68
2022/09/07 07:13:58;;;;;;;6.38;2.28;;;21.30;99.90;;;;;;5055738;28;20110;-68
2022/09/07 07:16:24;;;;;;;9.82;2.55;;;21.40;99.90;;;;;;5074590;28;20036;-68
2022/09/07 07:18:54;;;;;;;9.90;2.83;;;21.40;99.90;;;;;;5072963;28;20028;-69
2022/09/07 07:21:19;;;;;;;7.70;2.67;;;21.50;99.90;;;;;;5075201;28;20033;-69
2022/09/07 07:23:49;;;;;;;8.63;2.08;;;21.60;99.90;;;;;;5057676;28;20504;-69
2022/09/07 07:26:18;;;;;;;7.57;2.45;;;21.70;99.90;;;;;;5076637;28;20024;-68
2022/09/07 07:28:46;;;;;;;6.40;2.40;;;21.80;99.90;;;;;;5057367;28;20038;-70
2022/09/07 07:31:12;;;;;;;7.03;2.22;;;21.90;99.90;;;;;;5074105;28;20028;-71
2022/09/07 07:33:38;;;;;;;5.65;1.88;;;22.00;99.90;;;;;;5072501;28;20025;-70
2022/09/07 07:36:14;;;;;;;10.70;2.20;;;22.10;99.90;;;;;;5072352;28;20024;-70
2022/09/07 07:38:41;;;;;;;5.37;2.07;;;22.20;99.90;;;;;;5054855;28;20043;-70
2022/09/07 07:41:07;;;;;;;8.43;3.00;;;22.30;99.90;;;;;;5072941;28;20428;-70
2022/09/07 07:43:32;;;;;;;;;;;22.40;99.90;;;;;;5055187;28;20131;-71
2022/09/07 07:45:58;;;;;;;12.48;3.75;;;22.50;99.90;;;;;;5058047;28;19944;-71
2022/09/07 07:48:25;;;;;;;8.32;2.50;;;22.50;99.90;;;;;;5075819;28;20110;-71
2022/09/07 07:51:02;;;;;;;6.28;2.47;;;22.60;99.90;;;;;;5058245;28;20539;-71
2022/09/07 07:53:30;;;;;;;9.20;2.38;;;22.60;99.90;;;;;;5058309;28;20024;-71
2022/09/07 07:55:59;;;;;;;6.15;2.80;;;22.60;99.90;;;;;;5075739;28;20051;-70
2022/09/07 07:58:27;;;;;;;12.38;2.47;;;22.80;99.90;;;;;;5075606;28;20074;-70
2022/09/07 08:00:54;;;;;;;12.60;2.40;;;22.80;99.90;;;;;;5075677;28;20067;-70
2022/09/07 08:03:23;;;;;;;7.07;2.17;;;22.90;99.90;;;;;;5057585;28;20098;-70
2022/09/07 08:05:49;;;;;;;9.95;2.58;;;23.00;99.90;;;;;;5075722;28;20461;-70
2022/09/07 08:08:15;;;;;;;;;;;23.00;99.90;;;;;;5075894;28;20089;-69
2022/09/07 08:10:41;;;;;;;6.47;2.30;;;23.10;99.90;;;;;;5057435;28;19948;-69
2022/09/07 08:13:06;;;;;;;8.93;2.17;;;23.10;99.90;;;;;;5075362;28;20039;-71
2022/09/07 08:15:43;;;;;;;7.65;2.42;;;23.10;99.90;;;;;;5075418;28;20040;-69
2022/09/07 08:18:12;;;;;;;9.55;2.40;;;23.10;99.90;;;;;;5075196;28;20052;-69
2022/09/07 08:20:39;;;;;;;13.15;2.75;;;23.20;99.90;;;;;;5075374;28;20025;-68
2022/09/07 08:23:06;;;;;;;7.45;2.40;;;23.30;99.90;;;;;;5057238;28;20028;-67
2022/09/07 08:25:32;;;;;;;7.80;2.83;;;23.30;99.90;;;;;;5057179;28;20036;-67
2022/09/07 08:27:57;;;;;;;6.97;2.05;;;23.50;99.90;;;;;;5075143;28;20532;-67
2022/09/07 08:30:24;;;;;;;9.15;2.13;;;23.60;99.90;;;;;;5075041;28;20161;-68
2022/09/07 08:32:50;;;;;;;6.43;2.25;;;23.70;99.90;;;;;;5074993;28;20361;-68
2022/09/07 08:35:16;;;;;;;5.25;2.70;;;23.80;99.90;;;;;;5057113;28;20020;-68
2022/09/07 08:37:41;;;;;;;5.55;2.40;;;23.80;99.90;;;;;;5074841;28;20031;-68
2022/09/07 08:40:15;;;;;;;8.90;2.72;;;24.00;99.90;;;;;;5074768;28;20048;-68
2022/09/07 08:42:47;;;;;;;7.60;2.22;;;24.10;99.90;;;;;;5057402;28;20024;-68
2022/09/07 08:45:23;;;;;;;8.95;2.53;;;24.30;99.90;;;;;;5075481;28;20032;-67
2022/09/07 08:47:50;;;;;;;9.95;2.13;;;25.60;99.90;;;;;;5075209;28;20028;-69
2022/09/07 08:50:42;;;;;;;10.13;2.15;;;29.00;99.90;;;;;;5075353;28;20029;-69
2022/09/07 08:53:17;;;;;;;4.68;1.80;;;32.50;97.00;;;;;;5075228;28;20025;-69
2022/09/07 08:55:54;;;;;;;5.68;1.80;;;34.50;92.80;;;;;;5074532;28;20098;-69
2022/09/07 08:58:26;;;;;;;5.03;2.05;;;36.10;90.00;;;;;;5074641;28;20036;-68
2022/09/07 09:00:52;;;;;;;8.13;3.08;;;37.10;85.00;;;;;;5074231;28;20032;-68
2022/09/07 09:03:25;;;;;;;16.30;2.10;;;38.40;80.30;;;;;;5074351;28;20538;-68
2022/09/07 09:06:24;;;;;;;6.28;1.95;;;39.80;76.80;;;;;;5056936;28;20024;-68
2022/09/07 09:09:21;;;;;;;6.90;2.00;;;40.40;73.40;;;;;;5056820;28;20414;-68
2022/09/07 09:11:53;;;;;;;7.75;2.28;;;41.70;69.90;;;;;;5074683;28;20017;-68
2022/09/07 09:14:38;;;;;;;3.78;1.80;;;42.60;67.30;;;;;;5056214;28;20020;-68
2022/09/07 09:17:10;;;;;;;9.60;2.65;;;42.30;65.50;;;;;;5074768;28;20024;-68
2022/09/07 09:19:57;;;;;;;6.55;1.90;;;42.80;64.70;;;;;;5074177;28;20515;-68
2022/09/07 09:22:27;;;;;;;11.23;2.10;;;43.60;63.60;;;;;;5074795;28;20052;-68
2022/09/07 09:24:56;;;;;;;5.32;2.38;;;43.90;62.10;;;;;;5074390;28;20048;-68
2022/09/07 09:27:21;;;;;;;4.50;1.90;;;44.20;60.80;;;;;;5074226;28;20052;-68
2022/09/07 09:29:47;;;;;;;7.00;2.42;;;44.50;60.70;;;;;;5073988;28;20375;-68
2022/09/07 09:32:33;;;;;;;5.90;2.30;;;43.10;60.40;;;;;;5074570;28;20060;-68
2022/09/07 09:35:27;;;;;;;7.70;3.65;;;42.40;61.40;;;;;;5075067;28;20025;-68
2022/09/07 09:37:52;;;;;;;8.68;2.78;;;40.50;62.60;;;;;;5056903;28;20028;-68
2022/09/07 09:40:24;;;;;;;7.60;2.25;;;40.50;63.60;;;;;;5074542;28;20039;-68
2022/09/07 09:43:16;;;;;;;5.97;2.35;;;41.80;62.40;;;;;;5055840;28;20031;-68
2022/09/07 09:45:45;;;;;;;6.03;1.98;;;43.70;60.60;;;;;;5073780;28;20028;-68
2022/09/07 09:48:19;;;;;;;5.63;1.83;;;44.90;58.50;;;;;;5056070;28;20028;-68
2022/09/07 09:50:50;;;;;;;7.78;2.28;;;43.70;58.70;;;;;;5055735;28;20477;-68
2022/09/07 09:53:28;;;;;;;6.20;2.13;;;42.90;59.20;;;;;;5073395;28;20032;-68
2022/09/07 09:55:55;;;;;;;4.47;1.80;;;42.90;59.00;;;;;;5073316;28;20036;-68
2022/09/07 09:58:47;;;;;;;4.72;1.70;;;42.10;59.20;;;;;;5056460;28;20107;-69
2022/09/07 10:01:33;;;;;;;4.60;1.80;;;42.40;59.40;;;;;;5050882;28;20035;-68
2022/09/07 10:04:33;;;;;;;6.53;2.28;;;42.60;58.70;;;;;;5055598;28;20508;-68
2022/09/07 10:07:21;;;;;;;10.10;2.45;;;42.50;58.80;;;;;;5073552;28;20024;-68
2022/09/07 10:09:52;;;;;;;7.65;2.42;;;43.50;58.10;;;;;;5073450;28;20056;-68
2022/09/07 10:12:31;;;;;;;5.30;1.90;;;42.90;58.00;;;;;;5073669;28;20032;-68
2022/09/07 10:14:58;;;;;;;4.82;2.30;;;42.10;58.70;;;;;;5073247;28;20043;-68
2022/09/07 10:17:33;;;;;;;6.18;2.08;;;42.10;58.50;;;;;;5055553;28;20107;-68
2022/09/07 10:20:18;;;;;;;5.57;1.63;;;42.10;58.50;;;;;;5073541;28;20036;-67
2022/09/07 10:22:50;;;;;;;5.68;1.83;;;42.40;57.90;;;;;;5055325;28;20750;-67
2022/09/07 10:25:35;;;;;;;7.95;2.13;;;42.20;58.20;;;;;;5073354;28;20461;-69
2022/09/07 10:28:13;;;;;;;4.80;1.87;;;41.10;58.90;;;;;;5074179;28;20446;-68
2022/09/07 10:31:09;;;;;;;9.38;2.10;;;39.10;61.10;;;;;;5074619;28;20025;-68
2022/09/07 10:34:02;;;;;;;5.47;1.70;;;39.30;62.00;;;;;;5073495;28;20025;-68
2022/09/07 10:36:37;;;;;;;7.28;2.25;;;40.90;60.50;;;;;;5055943;28;20025;-68
2022/09/07 10:39:11;;;;;;;6.28;1.77;;;42.20;59.10;;;;;;5073040;28;20428;-68
2022/09/07 10:42:12;;;;;;;6.03;1.80;;;40.60;59.90;;;;;;5074109;28;20531;-70
2022/09/07 10:45:00;;;;;;;5.70;2.22;;;38.50;61.40;;;;;;4971923;28;20049;-68
2022/09/07 10:47:30;;;;;;;9.15;2.13;;;39.00;61.30;;;;;;4955948;28;20563;-68
2022/09/07 10:50:06;;;;;;;6.80;2.35;;;38.90;61.50;;;;;;4972138;28;20491;-68
2022/09/07 10:52:47;;;;;;;;;;;40.20;60.70;;;;;;4972618;28;20369;-68
2022/09/07 10:55:38;;;;;;;9.25;2.03;;;39.70;61.10;;;;;;4972251;28;19906;-68
2022/09/07 10:58:50;;;;;;;6.00;2.10;;;38.10;61.60;;;;;;4972489;28;20380;-67
2022/09/07 11:01:36;;;;;;;4.63;1.80;;;38.20;62.20;;;;;;4933321;29;20118;-68
2022/09/07 11:04:16;;;;;;;;;;;37.20;62.20;;;;;;4934528;29;20028;-68
2022/09/07 11:06:47;;;;;;;5.22;2.17;;;35.80;65.30;;;;;;4933363;29;20379;-67
2022/09/07 11:09:48;;;;;;;5.70;2.40;;;34.30;67.20;;;;;;4933736;29;20055;-68
2022/09/07 11:12:20;;;;;;;4.63;1.83;;;32.70;70.20;;;;;;4934210;29;20083;-68
2022/09/07 11:15:11;;;;;;;5.47;2.00;;;31.10;71.10;;;;;;4933854;29;20059;-68
2022/09/07 11:17:51;;;;;;;4.18;2.00;;;30.30;72.70;;;;;;4928292;29;20043;-68
2022/09/07 11:20:31;;;;;;;9.30;2.13;;;30.10;72.70;;;;;;4938159;28;20040;-68
2022/09/07 11:23:12;;;;;;;5.90;1.88;;;29.80;73.60;;;;;;5014871;28;20037;-70
2022/09/07 11:26:02;;;;;;;5.25;2.15;;;29.10;75.30;;;;;;4998319;28;20056;-69
2022/09/07 11:28:53;;;;;;;5.05;1.77;;;28.70;76.50;;;;;;5014759;28;20026;-69
2022/09/07 11:31:30;;;;;;;3.20;1.45;;;28.50;77.90;;;;;;5031124;28;20044;-69
2022/09/07 11:34:02;;;;;;;4.40;1.80;;;28.60;77.80;;;;;;5076449;28;20040;-69
2022/09/07 11:36:33;;;;;;;5.68;2.03;;;28.60;77.30;;;;;;5076172;28;20025;-69
2022/09/07 11:39:13;;;;;;;4.10;1.77;;;28.50;76.30;;;;;;5076003;28;20448;-68
2022/09/07 11:41:46;;;;;;;9.57;1.70;;;28.50;77.20;;;;;;5058170;28;20078;-69
2022/09/07 11:44:24;;;;;;;4.97;1.70;;;28.70;77.10;;;;;;5077356;28;20377;-68
2022/09/07 11:46:52;;;;;;;5.18;2.20;;;28.60;76.70;;;;;;5059491;28;20028;-70
2022/09/07 11:49:20;;;;;;;6.07;1.75;;;28.80;76.70;;;;;;5076788;28;20515;-69
2022/09/07 11:51:49;;;;;;;6.30;1.77;;;28.80;76.40;;;;;;5076521;28;20021;-69
2022/09/07 11:54:36;;;;;;;4.68;1.67;;;28.80;77.00;;;;;;5076472;28;20492;-69
2022/09/07 11:57:38;;;;;;;5.95;2.13;;;28.70;77.50;;;;;;5058014;28;20148;-69
2022/09/07 12:00:11;;;;;;;5.63;1.65;;;28.70;76.70;;;;;;5057727;28;20361;-69
2022/09/07 12:03:14;;;;;;;5.88;2.72;;;28.60;77.20;;;;;;5075751;28;20362;-70
2022/09/07 12:06:09;;;;;;;5.10;1.88;;;28.60;77.70;;;;;;5075591;28;20100;-69
2022/09/07 12:08:51;;;;;;;4.22;1.60;;;28.70;77.80;;;;;;5058485;28;20025;-69
2022/09/07 12:11:26;;;;;;;2.75;1.65;;;28.60;77.80;;;;;;5076091;28;20020;-70
2022/09/07 12:14:11;;;;;;;6.57;2.17;;;28.40;77.50;;;;;;5075828;28;20377;-70
2022/09/07 12:17:05;;;;;;;4.35;1.60;;;28.30;78.10;;;;;;5075935;28;20029;-71
2022/09/07 12:19:31;;;;;;;5.40;1.67;;;28.10;78.80;;;;;;5014065;28;20476;-69
2022/09/07 12:21:58;;;;;;;8.70;2.35;;;27.90;79.50;;;;;;5075665;28;20082;-70
2022/09/07 12:24:42;;;;;;;6.43;2.03;;;27.80;80.20;;;;;;5075730;28;20020;-69
2022/09/07 12:27:09;;;;;;;5.32;2.13;;;27.60;81.00;;;;;;5075204;28;20020;-68
2022/09/07 12:29:35;;;;;;;7.05;1.88;;;27.80;79.80;;;;;;5074817;28;20021;-69
2022/09/07 12:32:03;;;;;;;3.10;1.55;;;27.90;79.70;;;;;;5073719;28;20234;-70
2022/09/07 12:34:31;;;;;;;2.90;1.55;;;27.90;78.70;;;;;;5075292;28;20468;-70
2022/09/07 12:37:09;;;;;;;4.07;1.70;;;27.90;77.40;;;;;;5075700;28;20024;-70
2022/09/07 12:39:36;;;;;;;7.60;1.60;;;28.20;77.20;;;;;;5056601;28;20036;-69
2022/09/07 12:42:04;;;;;;;3.65;1.73;;;28.30;76.10;;;;;;5055868;28;20078;-70
2022/09/07 12:44:31;;;;;;;2.45;1.38;;;28.60;75.90;;;;;;5075082;28;20472;-70
2022/09/07 12:47:15;;;;;;;4.20;1.40;;;28.60;75.60;;;;;;5056972;28;20033;-70
2022/09/07 12:50:04;;;;;;;3.13;1.50;;;28.60;76.60;;;;;;5039287;28;20035;-69
2022/09/07 12:52:44;;;;;;;4.78;1.50;;;28.70;75.40;;;;;;5057229;28;20023;-70
2022/09/07 12:55:18;;;;;;;3.67;1.50;;;28.60;74.80;;;;;;5074736;28;20022;-69
2022/09/07 12:58:02;;;;;;;5.13;2.25;;;28.60;75.00;;;;;;5056529;28;20102;-69
2022/09/07 13:01:08;;;;;;;7.20;2.05;;;28.80;75.20;;;;;;5056508;28;20025;-70
2022/09/07 13:03:58;;;;;;;6.43;2.10;;;28.70;75.10;;;;;;5056384;28;20020;-70
2022/09/07 13:07:06;;;;;;;4.47;1.65;;;28.80;75.50;;;;;;5056506;28;20029;-69
2022/09/07 13:09:36;;;;;;;5.90;1.50;;;28.90;76.10;;;;;;5074723;28;20532;-69
2022/09/07 13:12:31;;;;;;;4.53;1.60;;;28.70;75.40;;;;;;5056183;28;20028;-69
2022/09/07 13:14:59;;;;;;;4.85;1.90;;;28.60;75.50;;;;;;5073303;28;20047;-69
2022/09/07 13:17:37;;;;;;;5.80;1.70;;;28.50;75.20;;;;;;5074469;28;20067;-69